• Join FlightAware (Why Join?)
  • Login
  • US Flag 
07:29PM EST


 

Airport Tracker/Info


-or-


 

Live Flight TrackerFlight Track Log ✈ CSZ9759 ✈ 30-Aug-2014 ✈ ZGSZ / SZX - ZSWZ / WNZ

Flight Track Log - Related Links

Times and Time Zones

All times are in EDT time to prevent confusion due to time zone crossing. See the CSZ9759 flight status page for this flight to view local times or setup timezone preferences in your user account.

Time Position Orientation Groundspeed Altitude Reporting Facility
EDT Latitude Longitude Course Direction KTS MPH feet Rate Location/Type
03:25AM 23.2324 114.5544 49° Northeast  Level Estimated
03:26AM 23.3063 114.6476 49° Northeast  Level Estimated
03:27AM 23.3801 114.7409 49° Northeast  Level Estimated
03:28AM 23.4539 114.8343 49° Northeast  Level Estimated
03:29AM 23.5276 114.9278 49° Northeast  Level Estimated
03:30AM 23.6013 115.0214 49° Northeast  Level Estimated
03:31AM 23.6749 115.1151 49° Northeast  Level Estimated
03:32AM 23.7484 115.2089 49° Northeast  Level Estimated
03:33AM 23.8219 115.3029 49° Northeast  Level Estimated
03:34AM 23.8953 115.3969 49° Northeast  Level Estimated
03:35AM 23.9687 115.4911 50° Northeast  Level Estimated
03:36AM 24.0420 115.5853 50° Northeast  Level Estimated
03:37AM 24.1153 115.6797 50° Northeast  Level Estimated
03:38AM 24.1885 115.7742 50° Northeast  Level Estimated
03:39AM 24.2616 115.8687 50° Northeast  Level Estimated
03:40AM 24.3347 115.9634 50° Northeast  Level Estimated
03:41AM 24.4077 116.0582 50° Northeast  Level Estimated
03:42AM 24.4807 116.1531 50° Northeast  Level Estimated
03:43AM 24.5536 116.2482 50° Northeast  Level Estimated
03:44AM 24.6264 116.3433 50° Northeast  Level Estimated
03:45AM 24.6992 116.4385 50° Northeast  Level Estimated
03:46AM 24.7719 116.5339 50° Northeast  Level Estimated
03:47AM 24.8446 116.6293 50° Northeast  Level Estimated
03:48AM 24.9172 116.7249 50° Northeast  Level Estimated
03:49AM 24.9897 116.8206 50° Northeast  Level Estimated
03:50AM 25.0622 116.9164 50° Northeast  Level Estimated
03:51AM 25.1346 117.0123 50° Northeast  Level Estimated
03:52AM 25.2070 117.1083 50° Northeast  Level Estimated
03:53AM 25.2793 117.2045 50° Northeast  Level Estimated
03:54AM 25.3515 117.3007 50° Northeast  Level Estimated
03:55AM 25.4237 117.3971 50° Northeast  Level Estimated
03:56AM 25.4958 117.4936 50° Northeast  Level Estimated
03:57AM 25.5678 117.5902 50° Northeast  Level Estimated
03:58AM 25.6398 117.6869 50° Northeast  Level Estimated
03:59AM 25.7117 117.7838 50° Northeast  Level Estimated
04:00AM 25.7836 117.8807 51° Northeast  Level Estimated
04:01AM 25.8554 117.9778 51° Northeast  Level Estimated
04:02AM 25.9271 118.0750 51° Northeast  Level Estimated
04:03AM 25.9988 118.1723 51° Northeast  Level Estimated
04:04AM 26.0703 118.2697 51° Northeast  Level Estimated
04:05AM 26.1419 118.3672 51° Northeast  Level Estimated
04:06AM 26.2133 118.4649 51° Northeast  Level Estimated
04:07AM 26.2847 118.5627 51° Northeast  Level Estimated
04:08AM 26.3561 118.6606 51° Northeast  Level Estimated
04:09AM 26.4273 118.7586 51° Northeast  Level Estimated
04:10AM 26.4985 118.8568 51° Northeast  Level Estimated
04:11AM 26.5696 118.9550 51° Northeast  Level Estimated
04:12AM 26.6407 119.0534 51° Northeast  Level Estimated
04:13AM 26.7117 119.1519 51° Northeast  Level Estimated
04:14AM 26.7826 119.2505 51° Northeast  Level Estimated
04:15AM 26.8535 119.3493 51° Northeast  Level Estimated
04:16AM 26.9243 119.4482 51° Northeast  Level Estimated
04:17AM 26.9950 119.5472 51° Northeast  Level Estimated
04:18AM 27.0656 119.6463 51° Northeast  Level Estimated
04:19AM 27.1362 119.7456 51° Northeast  Level Estimated
04:20AM 27.2067 119.8450 51° Northeast  Level Estimated
04:21AM 27.2772 119.9445 51° Northeast  Level Estimated
04:22AM 27.3475 120.0441 51° Northeast  Level Estimated
04:23AM 27.4178 120.1439 52° Northeast  Level Estimated
04:24AM 27.4881 120.2437 52° Northeast  Level Estimated
04:25AM 27.5582 120.3438 52° Northeast  Level Estimated
04:26AM 27.6283 120.4439 52° Northeast  Level Estimated
04:27AM 27.6983 120.5442 52° Northeast  Level Estimated
04:28AM 27.7683 120.6446 52° Northeast  Level Estimated
04:29AM 27.8381 120.7451 52° Northeast  Level Estimated
04:30AM 27.9079 120.8457 52° Northeast  Level Estimated
04:31AM 27.9122 120.8519 52° Northeast  Level Estimated
04:32AM 27.9122 120.8519 North  Level Estimated
04:33AM 27.9122 120.8519 North  Level Estimated
04:34AM 27.9122 120.8519 North  Level Estimated
04:35AM 27.9122 120.8519 North  Level Estimated
04:36AM 27.9122 120.8519 North  Level Estimated
04:37AM 27.9122 120.8519 North  Level Estimated
04:38AM 27.9122 120.8519 North  Level Estimated
04:39AM 27.9122 120.8519 North  Level Estimated
04:40AM 27.9122 120.8519 North  Level Estimated
04:41AM 27.9122 120.8519 North  Level Estimated
04:42AM 27.9122 120.8519 North  Level Estimated
04:43AM 27.9122 120.8519 North  Level Estimated
04:44AM 27.9122 120.8519 North  Level Estimated
04:45AM 27.9122 120.8519 North  Level Estimated
04:46AM 27.9122 120.8519 North  Level Estimated